Time;durP1;ratioP1;P1;durP2;ratioP2;P2;SDS_P1;SDS_P2;PMS_P1;PMS_P2;Temp;Humidity;BMP_temperature;BMP_pressure;BME280_temperature;BME280_humidity;BME280_pressure;Samples;Min_cycle;Max_cycle;Signal;HPM_P1;HPM_P2
2021/07/15 00:01:34;;;;;;;19.48;12.55;;;;;;;17.09;91.13;100774.91;5005173;28;20609;-72
2021/07/15 00:04:00;;;;;;;24.00;14.07;;;;;;;17.09;91.33;100776.72;5004117;28;20120;-72
2021/07/15 00:06:25;;;;;;;19.83;12.05;;;;;;;17.09;91.24;100780.13;5004466;28;20025;-72
2021/07/15 00:08:55;;;;;;;19.50;11.48;;;;;;;17.09;91.24;100788.00;5003381;28;20030;-72
2021/07/15 00:11:24;;;;;;;25.80;14.63;;;;;;;17.09;91.06;100788.00;5003619;28;20038;-72
2021/07/15 00:13:49;;;;;;;25.58;15.25;;;;;;;17.09;91.14;100792.44;5002343;28;20041;-72
2021/07/15 00:16:15;;;;;;;23.95;14.45;;;;;;;17.08;91.17;100794.25;5001455;28;20052;-72
2021/07/15 00:18:46;;;;;;;22.08;14.35;;;;;;;17.08;91.11;100788.19;5002213;28;20375;-72
2021/07/15 00:21:14;;;;;;;26.42;14.93;;;;;;;17.08;91.12;100786.41;5000468;28;20080;-72
2021/07/15 00:23:40;;;;;;;23.25;13.52;;;;;;;17.08;91.17;100794.25;5003713;28;20394;-73
2021/07/15 00:26:07;;;;;;;23.77;13.70;;;;;;;17.08;91.17;100802.13;5007501;28;20048;-72
2021/07/15 00:28:37;;;;;;;27.63;14.73;;;;;;;17.07;90.98;100800.47;5004713;28;20034;-73
2021/07/15 00:31:04;;;;;;;26.25;15.52;;;;;;;17.04;90.80;100794.84;5003986;28;20079;-73
2021/07/15 00:33:30;;;;;;;24.27;14.02;;;;;;;17.04;90.96;100798.25;5007524;28;20131;-73
2021/07/15 00:35:57;;;;;;;23.75;13.05;;;;;;;17.00;90.86;100804.09;5006887;28;20406;-73
2021/07/15 00:38:23;;;;;;;27.58;14.63;;;;;;;17.00;90.96;100804.09;4990664;28;20518;-73
2021/07/15 00:40:49;;;;;;;20.98;12.52;;;;;;;16.99;90.93;100803.31;5006664;28;20026;-72
2021/07/15 00:43:14;;;;;;;19.85;12.38;;;;;;;16.99;90.90;100800.69;5007607;28;20041;-72
2021/07/15 00:45:40;;;;;;;23.90;13.75;;;;;;;17.01;90.82;100801.28;5006903;28;20050;-73
2021/07/15 00:48:06;;;;;;;30.67;15.88;;;;;;;17.01;90.97;100795.22;5008822;28;20037;-73
2021/07/15 00:50:31;;;;;;;22.45;13.75;;;;;;;17.01;90.88;100792.59;4989778;28;20030;-72
2021/07/15 00:52:58;;;;;;;23.17;13.27;;;;;;;17.00;91.04;100786.56;5004306;28;20104;-72
2021/07/15 00:55:32;;;;;;;25.45;14.35;;;;;;;17.00;91.25;100783.16;5007062;28;20068;-73
2021/07/15 00:57:58;;;;;;;26.23;15.80;;;;;;;16.98;91.08;100788.56;5012023;28;20079;-73
2021/07/15 01:00:25;;;;;;;29.48;15.98;;;;;;;16.96;91.50;100797.66;5010294;28;20099;-72
2021/07/15 01:02:52;;;;;;;30.17;13.85;;;;;;;16.96;91.46;100800.25;5010520;28;20506;-72
2021/07/15 01:05:30;;;;;;;27.55;14.82;;;;;;;16.95;91.41;100785.53;5009710;28;20029;-72
2021/07/15 01:07:56;;;;;;;26.55;15.88;;;;;;;16.95;91.49;100788.16;5002700;28;20034;-72
2021/07/15 01:10:26;;;;;;;29.10;16.38;;;;;;;16.95;91.35;100786.34;5011145;28;20034;-72
2021/07/15 01:13:24;;;;;;;25.13;13.40;;;;;;;16.95;91.20;100790.78;5010145;28;20034;-72
2021/07/15 01:16:21;;;;;;;29.42;15.18;;;;;;;16.93;90.98;100783.94;5009663;28;20049;-72
2021/07/15 01:18:56;;;;;;;26.90;16.65;;;;;;;16.96;90.91;100785.34;4992616;28;20034;-72
2021/07/15 01:21:41;;;;;;;22.13;13.35;;;;;;;16.98;90.78;100788.56;5010042;28;20046;-71
2021/07/15 01:24:45;;;;;;;27.02;15.82;;;;;;;16.99;90.58;100799.84;5008441;28;20030;-72
2021/07/15 01:27:43;;;;;;;30.75;16.33;;;;;;;16.99;90.43;100790.19;4995592;28;20053;-72
2021/07/15 01:30:18;;;;;;;28.52;17.15;;;;;;;16.97;90.50;100794.84;5008802;28;20030;-72
2021/07/15 01:33:04;;;;;;;27.77;16.25;;;;;;;16.95;90.71;100802.06;5010522;28;20038;-72
2021/07/15 01:35:38;;;;;;;33.72;17.55;;;;;;;16.93;90.98;100798.81;5006811;28;20041;-72
2021/07/15 01:38:04;;;;;;;30.55;16.30;;;;;;;16.95;90.94;100802.06;5003249;28;20038;-72
2021/07/15 01:40:44;;;;;;;30.45;16.05;;;;;;;16.94;91.05;100795.22;5008840;28;20495;-71
2021/07/15 01:43:13;;;;;;;30.13;14.82;;;;;;;16.91;91.22;100804.28;5004859;28;20030;-71
2021/07/15 01:45:39;;;;;;;26.83;14.15;;;;;;;16.92;91.15;100795.41;4998406;28;20030;-72
2021/07/15 01:48:06;;;;;;;31.70;15.93;;;;;;;16.92;91.26;100789.38;5010251;28;20544;-72
2021/07/15 01:50:33;;;;;;;30.77;17.15;;;;;;;16.92;91.17;100787.56;5010249;28;20117;-72
2021/07/15 01:52:59;;;;;;;30.92;16.40;;;;;;;16.92;91.31;100784.94;5006257;28;20034;-71
2021/07/15 01:55:25;;;;;;;36.08;18.35;;;;;;;16.92;91.25;100784.13;5001788;28;20048;-71
2021/07/15 01:57:53;;;;;;;29.83;15.80;;;;;;;16.91;91.29;100790.38;5010381;28;20568;-71
2021/07/15 02:00:18;;;;;;;40.78;20.75;;;;;;;16.91;90.97;100796.44;5009898;28;20041;-71
2021/07/15 02:02:45;;;;;;;32.83;16.25;;;;;;;16.89;90.88;100793.19;5007499;28;20092;-71
2021/07/15 02:05:12;;;;;;;31.95;17.13;;;;;;;16.87;90.79;100795.19;5007461;28;20037;-71
2021/07/15 02:07:40;;;;;;;34.80;18.35;;;;;;;16.85;90.79;100797.19;5007091;28;20077;-72
2021/07/15 02:10:09;;;;;;;35.10;18.05;;;;;;;16.85;90.55;100796.41;5006778;28;20010;-71
2021/07/15 02:12:38;;;;;;;31.00;17.42;;;;;;;16.84;90.71;100811.31;5007845;28;20061;-71
2021/07/15 02:15:05;;;;;;;32.13;16.92;;;;;;;16.84;90.56;100811.31;5007443;28;20026;-71
2021/07/15 02:17:35;;;;;;;29.42;16.63;;;;;;;16.86;90.58;100803.28;5007702;28;20065;-71
2021/07/15 02:20:02;;;;;;;29.73;15.05;;;;;;;16.87;90.53;100808.28;5006567;28;20044;-71
2021/07/15 02:22:28;;;;;;;33.50;17.85;;;;;;;16.89;90.63;100816.75;5008146;28;20125;-71
2021/07/15 02:24:54;;;;;;;30.40;16.27;;;;;;;16.90;90.68;100823.59;4991630;28;20133;-71
2021/07/15 02:27:20;;;;;;;35.50;17.85;;;;;;;16.90;90.74;100817.56;5006665;28;20065;-71
2021/07/15 02:29:45;;;;;;;38.75;18.95;;;;;;;16.90;90.71;100825.44;5008001;28;20072;-71
2021/07/15 02:32:13;;;;;;;35.60;19.42;;;;;;;16.90;90.50;100828.06;5006637;28;20025;-71
2021/07/15 02:34:51;;;;;;;37.13;18.38;;;;;;;16.90;90.79;100823.59;5006537;28;20100;-70
2021/07/15 02:37:21;;;;;;;33.72;17.73;;;;;;;16.90;90.85;100822.81;5007626;28;20038;-71
2021/07/15 02:39:46;;;;;;;39.10;18.60;;;;;;;16.89;90.95;100824.59;5009098;28;20453;-73
2021/07/15 02:42:12;;;;;;;34.83;19.08;;;;;;;16.87;91.24;100825.81;5008728;28;20034;-73
2021/07/15 02:44:39;;;;;;;35.40;18.63;;;;;;;16.87;91.34;100829.22;5009181;28;20032;-73
2021/07/15 02:47:07;;;;;;;37.53;19.50;;;;;;;16.89;91.29;100823.81;5006941;28;20029;-73
2021/07/15 02:49:33;;;;;;;41.58;18.65;;;;;;;16.89;91.59;100821.19;5007355;28;20116;-72
2021/07/15 02:51:59;;;;;;;37.58;18.10;;;;;;;16.88;91.38;100823.00;4992549;28;20120;-73
2021/07/15 02:54:24;;;;;;;34.90;17.10;;;;;;;16.88;91.41;100820.38;5007287;28;20038;-72
2021/07/15 02:57:10;;;;;;;33.58;17.52;;;;;;;16.88;91.39;100815.16;5007405;28;20386;-73
2021/07/15 02:59:55;;;;;;;37.90;17.92;;;;;;;16.89;91.39;100805.47;4988081;28;20037;-73
2021/07/15 03:02:27;;;;;;;50.28;23.80;;;;;;;16.97;90.33;100799.25;5008740;28;20069;-73
2021/07/15 03:05:08;;;;;;;40.33;19.38;;;;;;;16.90;90.60;100804.47;5007324;28;20490;-73
2021/07/15 03:07:51;;;;;;;41.40;19.63;;;;;;;16.88;90.78;100799.44;5006588;28;20049;-72
2021/07/15 03:10:17;;;;;;;38.45;18.50;;;;;;;16.87;91.02;100803.03;5007112;28;20022;-73
2021/07/15 03:12:44;;;;;;;40.97;19.58;;;;;;;16.88;91.08;100801.25;5008163;28;20192;-73
2021/07/15 03:15:10;;;;;;;32.33;16.40;;;;;;;16.87;91.18;100797.81;5006279;28;20036;-74
2021/07/15 03:17:39;;;;;;;42.78;21.05;;;;;;;16.92;91.33;100798.03;5002571;28;20057;-71
2021/07/15 03:20:07;;;;;;;42.17;20.60;;;;;;;16.94;91.08;100784.75;5006282;28;20033;-73
2021/07/15 03:22:38;;;;;;;37.58;17.75;;;;;;;16.89;91.24;100792.38;5008711;28;20041;-73
2021/07/15 03:25:13;;;;;;;37.08;18.38;;;;;;;16.87;91.40;100808.28;5007142;28;20029;-73
2021/07/15 03:27:42;;;;;;;26.25;14.15;;;;;;;16.86;91.50;100808.50;5008971;28;20591;-73
2021/07/15 03:30:09;;;;;;;31.17;16.23;;;;;;;16.86;91.58;100813.75;5006776;28;20479;-73
2021/07/15 03:32:37;;;;;;;27.35;13.93;;;;;;;16.85;91.39;100814.72;5004499;28;20101;-72
2021/07/15 03:35:05;;;;;;;33.75;16.25;;;;;;;16.84;91.57;100813.09;5005071;28;20313;-73
2021/07/15 03:37:31;;;;;;;34.15;17.08;;;;;;;16.84;91.43;100821.78;5005843;28;20508;-73
2021/07/15 03:39:57;;;;;;;32.90;17.45;;;;;;;16.83;91.40;100822.78;4988710;28;20112;-73
2021/07/15 03:42:23;;;;;;;31.15;15.50;;;;;;;16.82;91.64;100829.03;4989605;28;20498;-73
2021/07/15 03:44:49;;;;;;;29.42;15.18;;;;;;;16.82;91.73;100833.41;5001674;28;20042;-72
2021/07/15 03:47:16;;;;;;;29.83;14.05;;;;;;;16.83;91.67;100835.06;5003357;28;20037;-73
2021/07/15 03:49:44;;;;;;;38.10;17.77;;;;;;;16.83;91.70;100835.88;5008649;28;20030;-73
2021/07/15 03:52:12;;;;;;;40.17;18.35;;;;;;;16.84;91.86;100836.66;5001269;28;20036;-74
2021/07/15 03:54:40;;;;;;;47.05;20.83;;;;;;;16.88;91.77;100823.00;5005171;28;20834;-72
2021/07/15 03:57:09;;;;;;;49.03;18.73;;;;;;;16.92;91.18;100823.41;5005894;28;20025;-72
2021/07/15 03:59:48;;;;;;;41.72;17.83;;;;;;;16.84;91.29;100828.81;5006522;28;20044;-72
2021/07/15 04:02:16;;;;;;;41.05;18.40;;;;;;;16.81;91.55;100835.22;5005166;28;20696;-72
2021/07/15 04:04:48;;;;;;;40.67;17.63;;;;;;;16.78;91.65;100840.84;5006501;28;20109;-72
2021/07/15 04:07:20;;;;;;;39.55;16.48;;;;;;;16.77;91.79;100844.47;5008381;28;20095;-72
2021/07/15 04:09:48;;;;;;;43.17;17.60;;;;;;;16.77;91.83;100854.16;5007201;28;20625;-72
2021/07/15 04:12:18;;;;;;;43.78;19.10;;;;;;;16.77;91.80;100859.41;5006600;28;20038;-72
2021/07/15 04:15:04;;;;;;;43.70;19.25;;;;;;;16.78;91.72;100864.41;4990049;28;20496;-71
2021/07/15 04:17:35;;;;;;;45.30;20.10;;;;;;;16.74;91.37;100868.44;5006146;28;20041;-72
2021/07/15 04:20:04;;;;;;;41.03;17.92;;;;;;;16.74;91.44;100878.91;5000726;28;20030;-72
2021/07/15 04:22:31;;;;;;;38.70;16.30;;;;;;;16.73;91.49;100878.09;5004390;28;20116;-71
2021/07/15 04:24:57;;;;;;;49.13;20.05;;;;;;;16.74;91.55;100881.53;4998500;28;20068;-72
2021/07/15 04:27:30;;;;;;;45.08;20.30;;;;;;;16.75;91.41;100867.44;5006251;28;20045;-72
2021/07/15 04:30:02;;;;;;;43.40;18.13;;;;;;;16.76;91.43;100861.19;5007485;28;20026;-71
2021/07/15 04:33:02;;;;;;;36.60;18.10;;;;;;;16.79;91.67;100867.84;5005641;28;20041;-72
2021/07/15 04:35:30;;;;;;;53.45;23.38;;;;;;;16.93;90.92;100872.16;4995380;28;20041;-74
2021/07/15 04:37:56;;;;;;;48.45;21.17;;;;;;;17.09;90.31;100865.78;5006291;28;20030;-73
2021/07/15 04:40:27;;;;;;;46.78;21.00;;;;;;;16.98;90.33;100869.78;5004432;28;20049;-74
2021/07/15 04:42:57;;;;;;;38.90;18.35;;;;;;;16.87;90.67;100886.84;5021517;28;20040;-74
2021/07/15 04:45:25;;;;;;;28.48;15.23;;;;;;;16.81;91.33;100892.03;5001807;28;20732;-74
2021/07/15 04:47:52;;;;;;;30.58;15.27;;;;;;;16.80;91.50;100893.84;5005428;28;20069;-74
2021/07/15 04:50:19;;;;;;;28.73;13.40;;;;;;;16.82;91.02;100888.41;5006131;28;20064;-72
2021/07/15 04:52:48;;;;;;;25.17;12.70;;;;;;;16.77;91.15;100889.00;5006654;28;20123;-74
2021/07/15 04:55:15;;;;;;;20.92;11.70;;;;;;;16.76;91.05;100874.28;5005370;28;20107;-73
2021/07/15 04:57:41;;;;;;;21.13;12.10;;;;;;;16.78;90.69;100876.72;5007061;28;20028;-71
2021/07/15 05:00:12;;;;;;;16.27;10.73;;;;;;;16.74;90.86;100890.19;5006405;28;20033;-74
2021/07/15 05:02:39;;;;;;;17.20;9.85;;;;;;;16.80;90.74;100890.41;5006237;28;20030;-72
2021/07/15 05:05:10;;;;;;;21.38;9.30;;;;;;;16.73;89.86;100887.78;4989511;28;20026;-72
2021/07/15 05:07:36;;;;;;;14.45;7.97;;;;;;;16.69;90.11;100892.59;5005919;28;20088;-72
2021/07/15 05:10:10;;;;;;;14.40;8.75;;;;;;;16.79;90.65;100894.03;5005248;28;20597;-71
2021/07/15 05:12:37;;;;;;;15.93;9.52;;;;;;;16.77;89.89;100886.38;5004728;28;20041;-72
2021/07/15 05:15:09;;;;;;;13.52;8.73;;;;;;;16.74;90.48;100873.66;4988241;28;20037;-71
2021/07/15 05:17:35;;;;;;;12.98;8.15;;;;;;;16.78;90.89;100868.84;5003511;28;20041;-71
2021/07/15 05:20:03;;;;;;;12.35;8.18;;;;;;;16.80;91.28;100866.84;5007045;28;20041;-71
2021/07/15 05:22:29;;;;;;;14.32;9.18;;;;;;;16.85;91.36;100875.75;5003410;28;20038;-72
2021/07/15 05:24:54;;;;;;;14.77;7.63;;;;;;;16.86;91.61;100882.63;5003977;28;20026;-71
2021/07/15 05:27:20;;;;;;;12.05;7.68;;;;;;;16.89;91.54;100882.22;4997421;28;20060;-71
2021/07/15 05:29:45;;;;;;;13.52;7.43;;;;;;;16.91;91.63;100877.63;5006211;28;20038;-71
2021/07/15 05:32:11;;;;;;;14.25;7.60;;;;;;;16.93;91.47;100878.22;5004947;28;20043;-71
2021/07/15 05:34:37;;;;;;;14.82;7.25;;;;;;;16.95;91.62;100883.25;5004730;28;20041;-71
2021/07/15 05:37:03;;;;;;;16.20;8.68;;;;;;;16.97;91.75;100877.81;5004073;28;20084;-71
2021/07/15 05:39:29;;;;;;;13.90;7.40;;;;;;;16.97;91.41;100883.06;5009869;28;20506;-71
2021/07/15 05:41:54;;;;;;;15.07;8.02;;;;;;;16.97;91.68;100890.91;5008795;28;20030;-71
2021/07/15 05:44:20;;;;;;;15.05;9.85;;;;;;;17.00;91.25;100888.72;5009516;28;20648;-71
2021/07/15 05:46:45;;;;;;;13.82;7.65;;;;;;;16.96;91.19;100887.50;5004752;28;20034;-71
2021/07/15 05:49:11;;;;;;;14.45;8.45;;;;;;;16.99;90.86;100899.38;5009440;28;20025;-71
2021/07/15 05:51:36;;;;;;;15.57;9.00;;;;;;;16.97;91.01;100890.91;5010388;28;20038;-72
2021/07/15 05:54:02;;;;;;;17.88;8.13;;;;;;;16.98;91.29;100895.97;5009180;28;20030;-72
2021/07/15 05:56:27;;;;;;;15.02;8.35;;;;;;;16.99;91.12;100896.75;5010397;28;20041;-72
2021/07/15 05:58:53;;;;;;;12.88;7.90;;;;;;;17.01;91.18;100905.22;5010064;28;20053;-72
2021/07/15 06:01:19;;;;;;;15.15;8.32;;;;;;;17.02;90.82;100902.41;5009483;28;20038;-72
2021/07/15 06:03:45;;;;;;;18.90;9.48;;;;;;;17.03;90.74;100906.66;5010220;28;20025;-72
2021/07/15 06:06:11;;;;;;;16.80;8.77;;;;;;;17.06;90.81;100902.84;5003781;28;20052;-72
2021/07/15 06:08:36;;;;;;;21.73;11.10;;;;;;;17.07;90.29;100905.25;5007946;28;20761;-72
2021/07/15 06:11:02;;;;;;;19.00;11.18;;;;;;;17.07;90.18;100907.09;5010601;28;20069;-72
2021/07/15 06:13:28;;;;;;;18.33;9.95;;;;;;;17.05;90.18;100906.47;5007795;28;20407;-72
2021/07/15 06:15:54;;;;;;;13.68;8.68;;;;;;;17.05;90.34;100906.47;5008063;28;20087;-72
2021/07/15 06:18:19;;;;;;;14.20;8.93;;;;;;;17.07;90.62;100915.75;5013126;28;20064;-72
2021/07/15 06:20:45;;;;;;;16.92;8.43;;;;;;;17.10;90.38;100909.28;5009991;28;20387;-72
2021/07/15 06:23:10;;;;;;;17.38;10.27;;;;;;;17.14;90.37;100915.78;5007801;28;20029;-73
2021/07/15 06:25:36;;;;;;;20.95;11.43;;;;;;;17.15;89.83;100922.63;5009576;28;20026;-73
2021/07/15 06:28:01;;;;;;;15.15;10.07;;;;;;;17.13;89.89;100930.66;5008041;28;20025;-72
2021/07/15 06:30:27;;;;;;;15.27;9.23;;;;;;;17.12;90.28;100929.06;4992026;28;20038;-72
2021/07/15 06:32:54;;;;;;;16.80;10.30;;;;;;;17.07;90.35;100926.22;5008809;28;20038;-71
2021/07/15 06:35:21;;;;;;;20.45;9.75;;;;;;;17.11;89.44;100931.88;5006687;28;20038;-71
2021/07/15 06:37:54;;;;;;;17.02;9.18;;;;;;;17.19;88.78;100938.75;4989398;28;20045;-71
2021/07/15 06:40:21;;;;;;;17.08;10.45;;;;;;;17.24;88.85;100946.84;5004100;28;20080;-72
2021/07/15 06:42:49;;;;;;;12.63;8.15;;;;;;;17.11;89.45;100939.75;5006586;28;20021;-72
2021/07/15 06:45:15;;;;;;;12.82;9.20;;;;;;;17.12;89.88;100936.09;5001093;28;20037;-72
2021/07/15 06:47:42;;;;;;;14.48;10.00;;;;;;;17.11;90.15;100951.03;5008266;28;20029;-73
2021/07/15 06:50:10;;;;;;;18.70;11.63;;;;;;;17.14;90.00;100952.47;5012335;28;20515;-72
2021/07/15 06:52:36;;;;;;;16.73;9.40;;;;;;;17.08;90.12;100947.97;5007724;28;20049;-72
2021/07/15 06:55:03;;;;;;;16.73;9.43;;;;;;;17.08;90.28;100961.06;5007615;28;20018;-70
2021/07/15 06:57:29;;;;;;;15.65;10.15;;;;;;;17.22;89.54;100961.97;5007545;28;20030;-72
2021/07/15 06:59:55;;;;;;;16.23;10.13;;;;;;;17.13;89.88;100967.34;5008527;28;20041;-73
2021/07/15 07:02:20;;;;;;;16.05;10.63;;;;;;;17.12;90.23;100965.75;5008505;28;20041;-71
2021/07/15 07:04:46;;;;;;;23.08;12.88;;;;;;;17.11;89.49;100976.41;4988391;28;20034;-70
2021/07/15 07:07:11;;;;;;;18.55;11.43;;;;;;;17.13;89.69;100984.88;5008159;28;20026;-71
2021/07/15 07:09:37;;;;;;;16.95;11.07;;;;;;;17.10;89.85;100986.09;5008439;28;20018;-71
2021/07/15 07:12:03;;;;;;;18.15;10.48;;;;;;;17.08;89.91;100995.13;5004002;28;20454;-70
2021/07/15 07:14:29;;;;;;;19.10;12.65;;;;;;;17.21;89.14;100995.19;5007718;28;20026;-70
2021/07/15 07:16:54;;;;;;;35.67;20.05;;;;;;;17.35;88.70;101001.31;5004345;28;20026;-71
2021/07/15 07:19:19;;;;;;;31.13;19.02;;;;;;;17.19;89.16;101002.44;5006198;28;20471;-71
2021/07/15 07:21:45;;;;;;;23.13;13.80;;;;;;;17.20;89.13;100998.84;5003746;28;20495;-71
2021/07/15 07:24:11;;;;;;;18.50;10.88;;;;;;;17.14;89.87;101007.47;5005044;28;20022;-72
2021/07/15 07:26:37;;;;;;;18.23;12.57;;;;;;;17.15;90.12;101001.22;5003963;28;20041;-71
2021/07/15 07:29:03;;;;;;;17.30;11.95;;;;;;;17.17;90.24;101004.44;5006781;28;20018;-71
2021/07/15 07:31:28;;;;;;;21.70;12.48;;;;;;;17.19;90.56;101009.50;5006543;28;20049;-72
2021/07/15 07:33:54;;;;;;;20.88;11.93;;;;;;;17.20;90.66;101011.13;5008354;28;20034;-72
2021/07/15 07:36:20;;;;;;;22.38;14.27;;;;;;;17.27;90.60;101010.16;5008333;28;20740;-71
2021/07/15 07:38:46;;;;;;;24.25;14.70;;;;;;;17.31;90.14;101018.44;5005365;28;20651;-72
2021/07/15 07:41:11;;;;;;;22.67;14.85;;;;;;;17.36;90.41;101018.63;5004795;28;20518;-73
2021/07/15 07:43:37;;;;;;;21.65;13.93;;;;;;;17.37;90.05;101022.09;5005407;28;20025;-73
2021/07/15 07:46:04;;;;;;;26.95;16.73;;;;;;;17.39;89.91;101006.97;5003604;28;20410;-72
2021/07/15 07:48:30;;;;;;;26.70;14.75;;;;;;;17.48;90.06;101017.09;5001568;28;20513;-73
2021/07/15 07:50:58;;;;;;;23.95;15.63;;;;;;;17.63;90.04;101008.25;5005029;28;20017;-72
2021/07/15 07:53:25;;;;;;;26.40;16.92;;;;;;;17.71;90.30;101006.25;5000969;28;20133;-73
2021/07/15 07:55:51;;;;;;;29.67;17.65;;;;;;;17.82;89.64;101012.75;5001672;28;20095;-72
2021/07/15 07:58:17;;;;;;;28.70;17.63;;;;;;;17.88;89.40;101005.94;5005188;28;20033;-72
2021/07/15 08:00:42;;;;;;;29.02;19.38;;;;;;;18.04;89.45;101002.91;5005519;28;20038;-72
2021/07/15 08:03:08;;;;;;;27.55;18.65;;;;;;;18.23;88.89;100996.09;5006777;28;20038;-72
2021/07/15 08:05:37;;;;;;;29.10;18.42;;;;;;;18.43;88.74;100995.25;5003454;28;20057;-72
2021/07/15 08:08:03;;;;;;;29.58;18.23;;;;;;;18.59;88.96;100994.03;5002478;28;20134;-72
2021/07/15 08:10:29;;;;;;;28.88;18.67;;;;;;;18.76;87.99;100979.47;5006197;28;20038;-72
2021/07/15 08:12:54;;;;;;;26.63;17.70;;;;;;;18.87;87.36;100988.53;5002004;28;20080;-72
2021/07/15 08:15:20;;;;;;;30.67;18.83;;;;;;;18.90;86.86;100988.13;5007629;28;20061;-73
2021/07/15 08:17:45;;;;;;;26.65;16.48;;;;;;;18.97;87.20;100991.56;5004854;28;20030;-73
2021/07/15 08:20:11;;;;;;;29.50;17.88;;;;;;;18.94;87.35;100986.72;4990957;28;20049;-73
2021/07/15 08:22:39;;;;;;;32.35;19.50;;;;;;;18.89;87.57;100991.75;5004408;28;20037;-73
2021/07/15 08:25:05;;;;;;;26.42;17.23;;;;;;;18.90;86.62;100992.59;5004717;28;20065;-73
2021/07/15 08:27:31;;;;;;;30.85;18.48;;;;;;;18.79;87.01;100989.53;5004814;28;20423;-73
2021/07/15 08:29:56;;;;;;;31.27;17.77;;;;;;;18.76;87.46;100995.22;5007264;23;20099;-70
2021/07/15 08:32:23;;;;;;;26.30;14.98;;;;;;;18.75;87.16;100996.22;5024977;28;20450;-70
2021/07/15 08:34:48;;;;;;;27.48;18.23;;;;;;;18.77;85.41;101004.69;5018963;28;20033;-70
2021/07/15 08:37:13;;;;;;;24.92;15.35;;;;;;;18.79;85.41;101005.31;5005703;28;20084;-70
2021/07/15 08:39:39;;;;;;;22.05;13.80;;;;;;;18.84;86.16;101010.00;5018657;28;20392;-70
2021/07/15 08:42:08;;;;;;;19.70;13.90;;;;;;;18.89;85.50;101015.41;4988132;28;20034;-69
2021/07/15 08:44:34;;;;;;;23.88;15.80;;;;;;;19.00;84.67;101013.97;5012375;23;20546;-72
2021/07/15 08:47:01;;;;;;;20.70;12.88;;;;;;;19.01;84.43;101023.50;4980739;28;20615;-72
2021/07/15 08:49:27;;;;;;;18.08;12.77;;;;;;;19.02;84.90;101023.28;5004396;28;20525;-72
2021/07/15 08:51:54;;;;;;;23.10;15.35;;;;;;;19.04;85.23;101029.13;4985948;28;20033;-73
2021/07/15 08:54:21;;;;;;;23.60;15.02;;;;;;;19.07;85.82;101027.91;4967939;28;20481;-72
2021/07/15 08:56:47;;;;;;;23.02;15.75;;;;;;;19.10;86.22;101019.63;5005125;28;20085;-72
2021/07/15 08:59:15;;;;;;;23.38;15.07;;;;;;;19.15;86.22;101019.78;4989697;28;20029;-72
2021/07/15 09:01:44;;;;;;;20.27;13.25;;;;;;;19.24;86.17;101015.13;5004103;28;20034;-72
2021/07/15 09:04:10;;;;;;;22.42;15.48;;;;;;;19.35;86.10;101016.28;4985779;28;20423;-72
2021/07/15 09:06:36;;;;;;;18.52;13.05;;;;;;;19.45;85.40;101014.00;5004188;28;20188;-73
2021/07/15 09:09:03;;;;;;;18.48;11.73;;;;;;;19.51;84.43;101018.44;5003489;28;20274;-72
2021/07/15 09:11:28;;;;;;;16.52;10.68;;;;;;;19.59;84.34;101023.47;5003536;28;20397;-73
2021/07/15 09:13:54;;;;;;;16.17;12.13;;;;;;;19.69;84.46;101019.56;5006305;28;20436;-73
2021/07/15 09:16:20;;;;;;;21.48;14.02;;;;;;;19.77;84.51;101030.66;5008504;28;20049;-73
2021/07/15 09:18:59;;;;;;;24.35;14.70;;;;;;;19.89;83.00;101022.94;5002073;28;20443;-73
2021/07/15 09:21:27;;;;;;;17.50;11.85;;;;;;;19.93;83.38;101037.25;5003791;28;20487;-72
2021/07/15 09:23:52;;;;;;;23.52;13.32;;;;;;;20.02;83.56;101036.00;4989004;28;20027;-74
2021/07/15 09:26:18;;;;;;;21.40;13.27;;;;;;;20.21;82.71;101036.03;4995219;28;20609;-72
2021/07/15 09:28:44;;;;;;;19.23;11.82;;;;;;;20.35;82.76;101039.41;5002588;28;20457;-74
2021/07/15 09:31:14;;;;;;;17.95;10.45;;;;;;;20.56;82.38;101041.63;5012824;28;20454;-72
2021/07/15 09:33:40;;;;;;;19.33;10.73;;;;;;;20.61;82.46;101038.41;5003694;28;20035;-74
2021/07/15 09:36:12;;;;;;;19.33;11.43;;;;;;;20.57;82.09;101042.47;4989907;28;20033;-75
2021/07/15 09:38:39;;;;;;;18.77;11.20;;;;;;;20.41;82.23;101047.22;5007388;28;20049;-74
2021/07/15 09:41:05;;;;;;;21.05;13.63;;;;;;;20.37;82.21;101055.78;4991159;28;20368;-75
2021/07/15 09:43:34;;;;;;;24.17;14.48;;;;;;;20.32;81.85;101052.97;4972911;28;20048;-74
2021/07/15 09:46:13;;;;;;;19.25;13.63;;;;;;;20.37;82.53;101053.16;5006623;28;20430;-75
2021/07/15 09:49:03;;;;;;;23.20;14.68;;;;;;;20.64;81.32;101056.38;5007192;28;20221;-75
2021/07/15 09:51:37;;;;;;;24.73;16.17;;;;;;;20.77;81.38;101058.09;4981904;28;20085;-74
2021/07/15 09:54:03;;;;;;;23.48;15.75;;;;;;;20.77;81.16;101058.91;4987109;28;20037;-75
2021/07/15 09:56:40;;;;;;;25.67;16.30;;;;;;;20.83;80.39;101053.78;5008768;28;20044;-76
2021/07/15 09:59:05;;;;;;;21.80;12.98;;;;;;;20.99;80.20;101047.97;4969855;28;20025;-77
2021/07/15 10:01:31;;;;;;;26.73;16.63;;;;;;;21.07;79.17;101052.94;4972488;28;20026;-77
2021/07/15 10:04:03;;;;;;;24.60;15.90;;;;;;;21.34;80.01;101047.34;4990919;28;20037;-76
2021/07/15 10:06:45;;;;;;;23.08;15.40;;;;;;;21.72;78.94;101051.59;4989211;28;20033;-75
2021/07/15 10:09:23;;;;;;;28.40;17.20;;;;;;;21.77;76.99;101056.97;4986095;28;20368;-77
2021/07/15 10:11:49;;;;;;;22.70;14.38;;;;;;;21.95;77.02;101056.13;4998742;28;20038;-76
2021/07/15 10:14:17;;;;;;;26.13;15.07;;;;;;;22.05;77.28;101050.28;5004664;28;20049;-75
2021/07/15 10:16:46;;;;;;;23.65;12.77;;;;;;;22.25;76.70;101047.34;4993535;28;20042;-74
2021/07/15 10:19:20;;;;;;;26.13;14.98;;;;;;;22.12;77.57;101045.72;4993978;28;20040;-76
2021/07/15 10:21:57;;;;;;;28.92;14.90;;;;;;;22.17;76.08;101043.22;5000149;28;20050;-75
2021/07/15 10:24:25;;;;;;;31.58;17.02;;;;;;;22.28;76.78;101047.75;5008912;28;20030;-76
2021/07/15 10:26:53;;;;;;;31.85;16.25;;;;;;;22.17;76.08;101044.00;4992971;28;20322;-76
2021/07/15 10:29:19;;;;;;;29.38;14.85;;;;;;;22.07;77.04;101048.22;4990713;28;20518;-76
2021/07/15 10:31:46;;;;;;;22.00;14.10;;;;;;;22.08;75.55;101053.28;5009104;28;20060;-76
2021/07/15 10:34:13;;;;;;;28.42;14.32;;;;;;;22.14;75.24;101051.59;4992661;28;20037;-76
2021/07/15 10:36:39;;;;;;;25.23;14.00;;;;;;;21.94;76.28;101063.25;4997619;28;20037;-77
2021/07/15 10:39:13;;;;;;;19.98;12.60;;;;;;;21.99;76.94;101062.56;4991786;28;20033;-76
2021/07/15 10:41:43;;;;;;;15.07;9.05;;;;;;;21.72;77.24;101067.41;5007557;28;20506;-75
2021/07/15 10:44:08;;;;;;;11.65;7.32;;;;;;;21.62;77.48;101069.75;4992560;28;20053;-76
2021/07/15 10:46:34;;;;;;;10.50;6.72;;;;;;;21.72;76.11;101076.13;5004329;28;20069;-76
2021/07/15 10:49:00;;;;;;;12.77;7.38;;;;;;;21.60;76.77;101074.47;4991792;28;20357;-76
2021/07/15 10:51:26;;;;;;;10.45;6.45;;;;;;;21.77;77.23;101072.81;5006719;28;20041;-75
2021/07/15 10:53:52;;;;;;;10.60;7.20;;;;;;;21.78;76.61;101069.94;5004307;28;20617;-75
2021/07/15 10:56:20;;;;;;;8.93;6.35;;;;;;;22.02;76.51;101067.41;4989934;28;20049;-75
2021/07/15 10:58:49;;;;;;;8.93;5.95;;;;;;;22.07;76.67;101075.44;5007898;28;20168;-75
2021/07/15 11:01:35;;;;;;;8.00;5.75;;;;;;;22.41;74.16;101074.97;4989809;28;20077;-76
2021/07/15 11:04:14;;;;;;;8.82;5.60;;;;;;;;;;4999345;28;20042;-76
2021/07/15 11:06:41;;;;;;;7.38;5.20;;;;;;;22.32;75.82;101071.84;4998366;28;20046;-76
2021/07/15 11:09:10;;;;;;;4.70;3.53;;;;;;;22.57;75.77;101078.78;5001600;28;20031;-75
2021/07/15 11:11:44;;;;;;;5.47;3.67;;;;;;;22.53;75.35;101078.44;5003255;28;20302;-73
2021/07/15 11:14:38;;;;;;;4.20;3.55;;;;;;;22.32;75.08;101072.66;4979643;28;20053;-76
2021/07/15 11:17:24;;;;;;;4.82;3.45;;;;;;;22.07;74.75;101074.63;4999444;28;20030;-75
2021/07/15 11:19:58;;;;;;;5.85;3.33;;;;;;;21.79;75.56;101070.75;5002732;28;20037;-74